YPPF weather

Adelaide Parafield Airport
Adelaide, South Australia, Australia

Public forecast

Using degrees Celsius for public forecast. Weather courtesy of forecast.io.

METAR (pilot weather report)

Closest report is Adelaide International Airport, 10.4 nm (19.3 km) SSW. Retrieved 2018/07/18 00:30 UTC (0 seconds ago):

YPAD 180030Z 35013KT 9999 FEW022 12/07 Q1016 NOSIG

TAF (pilot weather forecast)

Forecast is more than 12 hours old.

Closest forecast is Adelaide International Airport, 10.4 nm (19.3 km) SSW. Retrieved 2018/07/17 00:00 UTC (1 day ago):

TAF YPAD 172327Z 1800/1906 34018KT CAVOK FM180900 36010KT CAVOK FM182100 30014KT 9999 -SHRA SCT035 FM190200 25018KT 9999 SHRA SCT025 BKN030 INTER 1900/1906 3000 SHRA SCT015 BKN020